sensor_id;sensor_type;location;lat;lon;timestamp;temperature;humidity
42803;DHT22;28447;48.682;9.022;2023-03-11T05:02:37;-0.70;99.90
42803;DHT22;28447;48.682;9.022;2023-03-11T05:05:04;-0.80;99.90
42803;DHT22;28447;48.682;9.022;2023-03-11T05:07:31;-0.80;99.90
42803;DHT22;28447;48.682;9.022;2023-03-11T05:09:56;-0.80;99.90
42803;DHT22;28447;48.682;9.022;2023-03-11T05:12:22;-0.80;99.90
42803;DHT22;28447;48.682;9.022;2023-03-11T05:14:48;-0.80;99.90
42803;DHT22;28447;48.682;9.022;2023-03-11T05:17:13;-0.80;99.90
42803;DHT22;28447;48.682;9.022;2023-03-11T05:19:39;-0.80;99.90
42803;DHT22;28447;48.682;9.022;2023-03-11T05:22:06;-0.80;99.90
42803;DHT22;28447;48.682;9.022;2023-03-11T05:24:32;-0.70;99.90
42803;DHT22;28447;48.682;9.022;2023-03-11T05:26:59;-0.80;99.90
42803;DHT22;28447;48.682;9.022;2023-03-11T05:29:26;-0.80;99.90
42803;DHT22;28447;48.682;9.022;2023-03-11T05:31:52;-0.80;99.90
42803;DHT22;28447;48.682;9.022;2023-03-11T05:34:18;-0.80;99.90
42803;DHT22;28447;48.682;9.022;2023-03-11T05:36:44;-0.70;99.90
42803;DHT22;28447;48.682;9.022;2023-03-11T05:39:10;-0.80;99.90
42803;DHT22;28447;48.682;9.022;2023-03-11T05:41:36;-0.80;99.90
42803;DHT22;28447;48.682;9.022;2023-03-11T05:44:02;-0.80;99.90
42803;DHT22;28447;48.682;9.022;2023-03-11T05:46:28;-0.90;99.90
42803;DHT22;28447;48.682;9.022;2023-03-11T05:48:54;-0.90;99.90
42803;DHT22;28447;48.682;9.022;2023-03-11T05:51:22;-0.90;99.90
42803;DHT22;28447;48.682;9.022;2023-03-11T05:53:48;-0.90;99.90
42803;DHT22;28447;48.682;9.022;2023-03-11T05:56:14;-1.00;99.90
42803;DHT22;28447;48.682;9.022;2023-03-11T05:58:40;-1.00;99.90
42803;DHT22;28447;48.682;9.022;2023-03-11T06:01:08;-0.90;99.90
42803;DHT22;28447;48.682;9.022;2023-03-11T06:03:34;-0.90;99.90
42803;DHT22;28447;48.682;9.022;2023-03-11T06:05:59;-0.90;99.90
42803;DHT22;28447;48.682;9.022;2023-03-11T06:08:25;-0.90;99.90
42803;DHT22;28447;48.682;9.022;2023-03-11T06:10:51;-0.90;99.90
42803;DHT22;28447;48.682;9.022;2023-03-11T06:13:17;-0.90;99.90
42803;DHT22;28447;48.682;9.022;2023-03-11T06:15:43;-0.80;99.90
42803;DHT22;28447;48.682;9.022;2023-03-11T06:18:10;-0.80;99.90
42803;DHT22;28447;48.682;9.022;2023-03-11T06:20:37;-0.70;99.90
42803;DHT22;28447;48.682;9.022;2023-03-11T06:23:05;-0.70;99.90
42803;DHT22;28447;48.682;9.022;2023-03-11T06:25:30;-0.60;99.90
42803;DHT22;28447;48.682;9.022;2023-03-11T06:27:57;-0.60;99.90
42803;DHT22;28447;48.682;9.022;2023-03-11T06:30:23;-0.60;99.90
42803;DHT22;28447;48.682;9.022;2023-03-11T06:32:49;-0.60;99.90
42803;DHT22;28447;48.682;9.022;2023-03-11T06:35:15;-0.60;99.90
42803;DHT22;28447;48.682;9.022;2023-03-11T06:37:41;-0.50;99.90
42803;DHT22;28447;48.682;9.022;2023-03-11T06:40:08;-0.50;99.90
42803;DHT22;28447;48.682;9.022;2023-03-11T06:42:35;-0.40;99.90
42803;DHT22;28447;48.682;9.022;2023-03-11T06:45:01;-0.40;99.90
42803;DHT22;28447;48.682;9.022;2023-03-11T06:47:27;-0.20;99.90
42803;DHT22;28447;48.682;9.022;2023-03-11T06:49:53;-0.20;99.90
42803;DHT22;28447;48.682;9.022;2023-03-11T06:52:19;-0.20;99.90
42803;DHT22;28447;48.682;9.022;2023-03-11T06:54:45;0.00;99.90
42803;DHT22;28447;48.682;9.022;2023-03-11T06:57:11;0.10;99.90
42803;DHT22;28447;48.682;9.022;2023-03-11T06:59:37;0.10;99.90
42803;DHT22;28447;48.682;9.022;2023-03-11T07:02:04;0.10;99.90
42803;DHT22;28447;48.682;9.022;2023-03-11T07:04:30;0.00;99.90
42803;DHT22;28447;48.682;9.022;2023-03-11T07:06:56;0.10;99.90
42803;DHT22;28447;48.682;9.022;2023-03-11T07:09:22;0.30;99.90
42803;DHT22;28447;48.682;9.022;2023-03-11T07:11:50;0.50;99.90
42803;DHT22;28447;48.682;9.022;2023-03-11T07:14:17;0.60;99.90
42803;DHT22;28447;48.682;9.022;2023-03-11T07:16:43;0.60;99.90
42803;DHT22;28447;48.682;9.022;2023-03-11T07:19:10;0.70;99.90
42803;DHT22;28447;48.682;9.022;2023-03-11T07:21:36;0.70;99.90
42803;DHT22;28447;48.682;9.022;2023-03-11T07:24:04;0.90;99.90
42803;DHT22;28447;48.682;9.022;2023-03-11T07:26:30;0.80;99.90
42803;DHT22;28447;48.682;9.022;2023-03-11T07:28:57;1.10;99.90
42803;DHT22;28447;48.682;9.022;2023-03-11T07:31:31;1.30;99.90
42803;DHT22;28447;48.682;9.022;2023-03-11T07:33:59;1.30;99.90
42803;DHT22;28447;48.682;9.022;2023-03-11T07:36:25;1.00;99.90
42803;DHT22;28447;48.682;9.022;2023-03-11T07:39:02;1.20;99.90
42803;DHT22;28447;48.682;9.022;2023-03-11T07:41:30;1.40;99.90
42803;DHT22;28447;48.682;9.022;2023-03-11T07:43:58;1.50;99.90
42803;DHT22;28447;48.682;9.022;2023-03-11T07:46:25;1.40;99.90
42803;DHT22;28447;48.682;9.022;2023-03-11T07:48:51;1.50;99.90
42803;DHT22;28447;48.682;9.022;2023-03-11T07:51:20;1.30;99.90
42803;DHT22;28447;48.682;9.022;2023-03-11T07:53:46;1.40;99.90
42803;DHT22;28447;48.682;9.022;2023-03-11T07:56:13;1.50;99.90
42803;DHT22;28447;48.682;9.022;2023-03-11T07:58:39;1.60;99.90
42803;DHT22;28447;48.682;9.022;2023-03-11T08:01:14;1.60;99.90
42803;DHT22;28447;48.682;9.022;2023-03-11T08:03:44;1.50;99.90
42803;DHT22;28447;48.682;9.022;2023-03-11T08:06:18;1.40;99.90
42803;DHT22;28447;48.682;9.022;2023-03-11T08:08:45;1.50;99.90
42803;DHT22;28447;48.682;9.022;2023-03-11T08:11:12;1.90;99.90
42803;DHT22;28447;48.682;9.022;2023-03-11T08:13:42;2.20;99.90
42803;DHT22;28447;48.682;9.022;2023-03-11T08:16:10;2.00;99.90
42803;DHT22;28447;48.682;9.022;2023-03-11T08:18:36;1.80;99.90
42803;DHT22;28447;48.682;9.022;2023-03-11T08:21:07;2.30;99.90
42803;DHT22;28447;48.682;9.022;2023-03-11T08:23:33;2.50;99.90
42803;DHT22;28447;48.682;9.022;2023-03-11T08:26:19;2.70;99.90
42803;DHT22;28447;48.682;9.022;2023-03-11T08:28:46;2.70;99.90
42803;DHT22;28447;48.682;9.022;2023-03-11T08:31:14;2.40;99.90
42803;DHT22;28447;48.682;9.022;2023-03-11T08:33:41;2.60;99.90
42803;DHT22;28447;48.682;9.022;2023-03-11T08:36:07;3.30;99.90
42803;DHT22;28447;48.682;9.022;2023-03-11T08:38:32;3.40;99.90
42803;DHT22;28447;48.682;9.022;2023-03-11T08:40:58;3.40;99.90
42803;DHT22;28447;48.682;9.022;2023-03-11T08:43:25;3.30;99.90
42803;DHT22;28447;48.682;9.022;2023-03-11T08:45:50;3.40;99.90
42803;DHT22;28447;48.682;9.022;2023-03-11T08:48:16;3.30;99.90
42803;DHT22;28447;48.682;9.022;2023-03-11T08:50:42;3.90;99.90
42803;DHT22;28447;48.682;9.022;2023-03-11T08:53:08;4.50;99.90
42803;DHT22;28447;48.682;9.022;2023-03-11T08:55:34;4.20;99.90
42803;DHT22;28447;48.682;9.022;2023-03-11T08:57:59;4.10;99.90
42803;DHT22;28447;48.682;9.022;2023-03-11T09:00:25;3.60;99.90
42803;DHT22;28447;48.682;9.022;2023-03-11T09:02:51;2.90;99.90
42803;DHT22;28447;48.682;9.022;2023-03-11T09:05:16;2.80;99.90
42803;DHT22;28447;48.682;9.022;2023-03-11T09:07:42;3.40;99.90
42803;DHT22;28447;48.682;9.022;2023-03-11T09:10:09;3.90;99.90
42803;DHT22;28447;48.682;9.022;2023-03-11T09:12:35;3.80;99.90
42803;DHT22;28447;48.682;9.022;2023-03-11T09:15:01;3.80;99.90
42803;DHT22;28447;48.682;9.022;2023-03-11T09:17:27;4.10;99.90
42803;DHT22;28447;48.682;9.022;2023-03-11T09:19:52;4.00;99.90
42803;DHT22;28447;48.682;9.022;2023-03-11T09:22:18;4.70;99.90
42803;DHT22;28447;48.682;9.022;2023-03-11T09:24:43;4.30;99.90
42803;DHT22;28447;48.682;9.022;2023-03-11T09:27:09;3.50;99.90
42803;DHT22;28447;48.682;9.022;2023-03-11T09:29:37;3.40;99.90
42803;DHT22;28447;48.682;9.022;2023-03-11T09:32:03;3.40;99.90
42803;DHT22;28447;48.682;9.022;2023-03-11T09:34:28;4.20;99.90
42803;DHT22;28447;48.682;9.022;2023-03-11T09:36:54;4.70;99.90
42803;DHT22;28447;48.682;9.022;2023-03-11T09:39:19;5.70;99.90
42803;DHT22;28447;48.682;9.022;2023-03-11T09:44:30;7.30;99.90
42803;DHT22;28447;48.682;9.022;2023-03-11T09:52:51;4.80;99.90
42803;DHT22;28447;48.682;9.022;2023-03-11T10:00:55;4.70;99.90
42803;DHT22;28447;48.682;9.022;2023-03-11T10:03:34;4.70;99.90
42803;DHT22;28447;48.682;9.022;2023-03-11T10:06:16;4.60;99.90
42803;DHT22;28447;48.682;9.022;2023-03-11T10:16:55;7.20;99.00
42803;DHT22;28447;48.682;9.022;2023-03-11T10:19:45;7.00;97.00
42803;DHT22;28447;48.682;9.022;2023-03-11T10:25:13;7.20;94.50
42803;DHT22;28447;48.682;9.022;2023-03-11T10:30:32;5.20;98.00
42803;DHT22;28447;48.682;9.022;2023-03-11T10:33:05;4.50;99.10
42803;DHT22;28447;48.682;9.022;2023-03-11T10:35:40;5.30;99.90
42803;DHT22;28447;48.682;9.022;2023-03-11T10:38:24;5.50;99.90
42803;DHT22;28447;48.682;9.022;2023-03-11T10:40:54;4.80;99.50
42803;DHT22;28447;48.682;9.022;2023-03-11T10:43:27;4.80;99.90
42803;DHT22;28447;48.682;9.022;2023-03-11T10:45:56;5.00;98.60
42803;DHT22;28447;48.682;9.022;2023-03-11T10:48:24;5.00;98.90
42803;DHT22;28447;48.682;9.022;2023-03-11T10:50:56;4.80;97.60
42803;DHT22;28447;48.682;9.022;2023-03-11T10:53:25;5.00;96.90
42803;DHT22;28447;48.682;9.022;2023-03-11T10:55:53;5.70;95.80
42803;DHT22;28447;48.682;9.022;2023-03-11T10:58:23;6.30;97.20
42803;DHT22;28447;48.682;9.022;2023-03-11T11:03:28;5.70;95.90
42803;DHT22;28447;48.682;9.022;2023-03-11T11:06:01;7.20;96.80
42803;DHT22;28447;48.682;9.022;2023-03-11T11:08:27;6.80;94.40
42803;DHT22;28447;48.682;9.022;2023-03-11T11:10:59;7.20;95.80
42803;DHT22;28447;48.682;9.022;2023-03-11T11:13:33;8.30;96.20
42803;DHT22;28447;48.682;9.022;2023-03-11T11:18:43;9.10;94.50
42803;DHT22;28447;48.682;9.022;2023-03-11T11:21:26;8.80;93.50
42803;DHT22;28447;48.682;9.022;2023-03-11T11:27:02;7.70;91.60
42803;DHT22;28447;48.682;9.022;2023-03-11T11:29:28;8.00;92.30
42803;DHT22;28447;48.682;9.022;2023-03-11T11:32:22;8.10;92.10
42803;DHT22;28447;48.682;9.022;2023-03-11T11:35:00;7.30;91.90
42803;DHT22;28447;48.682;9.022;2023-03-11T11:37:34;7.60;92.30
42803;DHT22;28447;48.682;9.022;2023-03-11T11:40:06;9.60;91.40
42803;DHT22;28447;48.682;9.022;2023-03-11T11:42:43;12.10;84.70
42803;DHT22;28447;48.682;9.022;2023-03-11T11:45:18;13.20;80.60
42803;DHT22;28447;48.682;9.022;2023-03-11T11:47:51;10.20;80.80
42803;DHT22;28447;48.682;9.022;2023-03-11T11:50:36;11.50;79.50
42803;DHT22;28447;48.682;9.022;2023-03-11T11:55:39;17.10;74.10
42803;DHT22;28447;48.682;9.022;2023-03-11T11:58:10;18.10;65.30
42803;DHT22;28447;48.682;9.022;2023-03-11T12:00:43;18.60;65.40
42803;DHT22;28447;48.682;9.022;2023-03-11T12:05:54;15.90;68.10
42803;DHT22;28447;48.682;9.022;2023-03-11T12:11:07;11.90;68.00
42803;DHT22;28447;48.682;9.022;2023-03-11T12:13:46;15.70;69.20
42803;DHT22;28447;48.682;9.022;2023-03-11T12:18:46;16.90;63.40
42803;DHT22;28447;48.682;9.022;2023-03-11T12:29:33;8.00;99.20
42803;DHT22;28447;48.682;9.022;2023-03-11T12:32:01;8.50;98.70
42803;DHT22;28447;48.682;9.022;2023-03-11T12:34:27;8.70;99.80
42803;DHT22;28447;48.682;9.022;2023-03-11T12:36:58;9.20;99.40
42803;DHT22;28447;48.682;9.022;2023-03-11T12:39:30;8.40;98.10
42803;DHT22;28447;48.682;9.022;2023-03-11T12:42:17;7.70;97.90
42803;DHT22;28447;48.682;9.022;2023-03-11T12:44:44;8.10;78.10
42803;DHT22;28447;48.682;9.022;2023-03-11T12:50:35;11.10;73.30
42803;DHT22;28447;48.682;9.022;2023-03-11T12:52:28;10.70;74.70
42803;DHT22;28447;48.682;9.022;2023-03-11T12:57:36;12.00;76.00
42803;DHT22;28447;48.682;9.022;2023-03-11T13:00:25;10.80;77.20
42803;DHT22;28447;48.682;9.022;2023-03-11T13:05:53;11.50;74.90
42803;DHT22;28447;48.682;9.022;2023-03-11T13:08:36;11.20;74.10
42803;DHT22;28447;48.682;9.022;2023-03-11T13:43:08;9.10;98.70
42803;DHT22;28447;48.682;9.022;2023-03-11T13:45:36;10.50;97.40
42803;DHT22;28447;48.682;9.022;2023-03-11T13:48:25;11.10;96.00
42803;DHT22;28447;48.682;9.022;2023-03-11T13:53:27;15.50;65.20
42803;DHT22;28447;48.682;9.022;2023-03-11T13:55:54;15.80;64.10
42803;DHT22;28447;48.682;9.022;2023-03-11T13:58:22;15.60;66.10
42803;DHT22;28447;48.682;9.022;2023-03-11T14:00:54;14.70;66.30
42803;DHT22;28447;48.682;9.022;2023-03-11T14:03:21;13.60;66.60
42803;DHT22;28447;48.682;9.022;2023-03-11T14:05:59;12.20;70.50
42803;DHT22;28447;48.682;9.022;2023-03-11T14:08:35;12.20;69.40
42803;DHT22;28447;48.682;9.022;2023-03-11T14:13:44;11.00;71.70
42803;DHT22;28447;48.682;9.022;2023-03-11T14:16:19;9.70;74.90
42803;DHT22;28447;48.682;9.022;2023-03-11T14:18:59;9.80;74.50
42803;DHT22;28447;48.682;9.022;2023-03-11T14:21:26;9.30;95.00
42803;DHT22;28447;48.682;9.022;2023-03-11T14:23:53;9.20;97.00
42803;DHT22;28447;48.682;9.022;2023-03-11T14:26:27;9.10;96.30
42803;DHT22;28447;48.682;9.022;2023-03-11T14:31:31;8.50;80.20
42803;DHT22;28447;48.682;9.022;2023-03-11T14:36:58;9.30;78.40
42803;DHT22;28447;48.682;9.022;2023-03-11T14:42:23;10.30;74.80
42803;DHT22;28447;48.682;9.022;2023-03-11T14:45:16;9.80;73.70
42803;DHT22;28447;48.682;9.022;2023-03-11T14:47:50;9.50;75.30
42803;DHT22;28447;48.682;9.022;2023-03-11T14:50:21;10.20;76.60
42803;DHT22;28447;48.682;9.022;2023-03-11T14:52:51;11.20;74.80
42803;DHT22;28447;48.682;9.022;2023-03-11T14:55:23;11.80;71.60
42803;DHT22;28447;48.682;9.022;2023-03-11T14:58:14;11.60;72.50
42803;DHT22;28447;48.682;9.022;2023-03-11T15:00:57;12.40;69.40
42803;DHT22;28447;48.682;9.022;2023-03-11T15:03:26;10.70;70.80
42803;DHT22;28447;48.682;9.022;2023-03-11T15:06:02;10.70;73.60
42803;DHT22;28447;48.682;9.022;2023-03-11T15:08:35;11.10;73.70
42803;DHT22;28447;48.682;9.022;2023-03-11T15:13:38;10.70;75.70
42803;DHT22;28447;48.682;9.022;2023-03-11T15:16:06;10.40;75.00
42803;DHT22;28447;48.682;9.022;2023-03-11T15:18:35;10.30;75.00
42803;DHT22;28447;48.682;9.022;2023-03-11T15:21:05;9.50;76.60
42803;DHT22;28447;48.682;9.022;2023-03-11T15:23:34;9.80;78.70
42803;DHT22;28447;48.682;9.022;2023-03-11T15:26:00;9.70;78.60
42803;DHT22;28447;48.682;9.022;2023-03-11T15:28:31;10.00;77.60
42803;DHT22;28447;48.682;9.022;2023-03-11T15:31:16;9.90;76.30
42803;DHT22;28447;48.682;9.022;2023-03-11T15:33:49;9.40;78.10
42803;DHT22;28447;48.682;9.022;2023-03-11T15:36:36;9.10;80.60
42803;DHT22;28447;48.682;9.022;2023-03-11T15:39:20;8.70;80.00
42803;DHT22;28447;48.682;9.022;2023-03-11T15:44:47;8.00;85.90
42803;DHT22;28447;48.682;9.022;2023-03-11T15:47:21;8.10;84.40
42803;DHT22;28447;48.682;9.022;2023-03-11T15:49:48;7.20;85.90
42803;DHT22;28447;48.682;9.022;2023-03-11T15:52:14;7.50;86.30
42803;DHT22;28447;48.682;9.022;2023-03-11T15:54:40;7.50;85.20
42803;DHT22;28447;48.682;9.022;2023-03-11T15:57:20;6.80;88.50
42803;DHT22;28447;48.682;9.022;2023-03-11T15:59:47;6.60;88.70
42803;DHT22;28447;48.682;9.022;2023-03-11T16:02:21;6.60;88.20
42803;DHT22;28447;48.682;9.022;2023-03-11T16:04:47;6.30;90.20
42803;DHT22;28447;48.682;9.022;2023-03-11T16:07:12;6.20;91.20
42803;DHT22;28447;48.682;9.022;2023-03-11T16:09:38;6.00;90.00
42803;DHT22;28447;48.682;9.022;2023-03-11T16:12:23;5.90;90.50
42803;DHT22;28447;48.682;9.022;2023-03-11T16:14:49;5.90;91.00
42803;DHT22;28447;48.682;9.022;2023-03-11T16:17:15;5.70;91.00
42803;DHT22;28447;48.682;9.022;2023-03-11T16:19:46;5.50;90.80
42803;DHT22;28447;48.682;9.022;2023-03-11T16:22:20;5.50;91.20
42803;DHT22;28447;48.682;9.022;2023-03-11T16:24:48;5.60;90.40
42803;DHT22;28447;48.682;9.022;2023-03-11T16:27:16;5.70;90.90
42803;DHT22;28447;48.682;9.022;2023-03-11T16:29:43;5.80;90.80
42803;DHT22;28447;48.682;9.022;2023-03-11T16:32:08;5.80;90.90
42803;DHT22;28447;48.682;9.022;2023-03-11T16:34:35;5.90;91.20
42803;DHT22;28447;48.682;9.022;2023-03-11T16:37:02;6.00;91.30
42803;DHT22;28447;48.682;9.022;2023-03-11T16:39:27;6.00;91.30
42803;DHT22;28447;48.682;9.022;2023-03-11T16:41:53;5.90;91.20
42803;DHT22;28447;48.682;9.022;2023-03-11T16:44:19;5.70;91.10
42803;DHT22;28447;48.682;9.022;2023-03-11T16:46:44;5.50;91.20
42803;DHT22;28447;48.682;9.022;2023-03-11T16:49:10;5.20;92.30
42803;DHT22;28447;48.682;9.022;2023-03-11T16:51:35;5.30;91.60
42803;DHT22;28447;48.682;9.022;2023-03-11T16:54:01;5.40;92.70
42803;DHT22;28447;48.682;9.022;2023-03-11T16:56:27;5.20;92.40
42803;DHT22;28447;48.682;9.022;2023-03-11T16:58:52;5.30;92.30
42803;DHT22;28447;48.682;9.022;2023-03-11T17:01:18;5.20;92.60
42803;DHT22;28447;48.682;9.022;2023-03-11T17:03:46;5.10;92.50
42803;DHT22;28447;48.682;9.022;2023-03-11T17:06:15;5.00;92.30
42803;DHT22;28447;48.682;9.022;2023-03-11T17:08:41;4.80;92.90
42803;DHT22;28447;48.682;9.022;2023-03-11T17:11:21;5.00;92.70
42803;DHT22;28447;48.682;9.022;2023-03-11T17:13:48;5.20;93.20
42803;DHT22;28447;48.682;9.022;2023-03-11T17:16:14;4.90;92.90
42803;DHT22;28447;48.682;9.022;2023-03-11T17:18:40;5.00;93.00
42803;DHT22;28447;48.682;9.022;2023-03-11T17:21:08;4.90;93.00
42803;DHT22;28447;48.682;9.022;2023-03-11T17:23:34;4.70;93.30
42803;DHT22;28447;48.682;9.022;2023-03-11T17:25:59;4.60;93.30
42803;DHT22;28447;48.682;9.022;2023-03-11T17:28:25;4.60;93.70
42803;DHT22;28447;48.682;9.022;2023-03-11T17:30:51;4.60;93.90
42803;DHT22;28447;48.682;9.022;2023-03-11T17:33:16;4.60;93.20
42803;DHT22;28447;48.682;9.022;2023-03-11T17:35:42;4.30;94.30
42803;DHT22;28447;48.682;9.022;2023-03-11T17:38:07;4.10;95.20
42803;DHT22;28447;48.682;9.022;2023-03-11T17:40:33;4.10;96.60
42803;DHT22;28447;48.682;9.022;2023-03-11T17:42:59;3.90;94.80
42803;DHT22;28447;48.682;9.022;2023-03-11T17:45:25;3.90;94.60
42803;DHT22;28447;48.682;9.022;2023-03-11T17:47:50;4.00;94.60
42803;DHT22;28447;48.682;9.022;2023-03-11T17:50:16;4.00;95.20
42803;DHT22;28447;48.682;9.022;2023-03-11T17:52:42;3.90;95.20
42803;DHT22;28447;48.682;9.022;2023-03-11T17:55:09;3.90;95.40
42803;DHT22;28447;48.682;9.022;2023-03-11T17:57:35;3.80;95.60
42803;DHT22;28447;48.682;9.022;2023-03-11T18:00:01;3.70;96.30
42803;DHT22;28447;48.682;9.022;2023-03-11T18:02:30;3.70;96.30
42803;DHT22;28447;48.682;9.022;2023-03-11T18:04:56;3.70;95.80
42803;DHT22;28447;48.682;9.022;2023-03-11T18:07:22;3.50;96.10
42803;DHT22;28447;48.682;9.022;2023-03-11T18:09:52;3.30;96.00
42803;DHT22;28447;48.682;9.022;2023-03-11T18:12:20;3.40;96.10
42803;DHT22;28447;48.682;9.022;2023-03-11T18:14:46;3.30;96.70
42803;DHT22;28447;48.682;9.022;2023-03-11T18:17:11;3.30;95.80
42803;DHT22;28447;48.682;9.022;2023-03-11T18:19:37;3.20;97.00
42803;DHT22;28447;48.682;9.022;2023-03-11T18:22:03;3.20;97.60
42803;DHT22;28447;48.682;9.022;2023-03-11T18:24:28;3.10;97.30
42803;DHT22;28447;48.682;9.022;2023-03-11T18:26:54;3.10;97.40
42803;DHT22;28447;48.682;9.022;2023-03-11T18:29:20;3.00;97.10
42803;DHT22;28447;48.682;9.022;2023-03-11T18:31:45;3.00;97.70
42803;DHT22;28447;48.682;9.022;2023-03-11T18:34:11;2.90;97.10
42803;DHT22;28447;48.682;9.022;2023-03-11T18:36:39;2.90;98.10
42803;DHT22;28447;48.682;9.022;2023-03-11T18:39:05;2.80;98.30
42803;DHT22;28447;48.682;9.022;2023-03-11T18:41:33;2.80;98.50
42803;DHT22;28447;48.682;9.022;2023-03-11T18:44:00;2.80;99.00
42803;DHT22;28447;48.682;9.022;2023-03-11T18:46:28;2.70;99.00
42803;DHT22;28447;48.682;9.022;2023-03-11T18:48:56;2.50;99.50
42803;DHT22;28447;48.682;9.022;2023-03-11T18:51:23;2.50;99.30
42803;DHT22;28447;48.682;9.022;2023-03-11T18:53:49;2.40;99.50
42803;DHT22;28447;48.682;9.022;2023-03-11T18:56:15;2.40;99.50
42803;DHT22;28447;48.682;9.022;2023-03-11T18:58:41;2.30;99.50
42803;DHT22;28447;48.682;9.022;2023-03-11T19:01:11;2.30;99.90
42803;DHT22;28447;48.682;9.022;2023-03-11T19:03:39;2.20;99.80
42803;DHT22;28447;48.682;9.022;2023-03-11T19:06:07;2.20;99.90
42803;DHT22;28447;48.682;9.022;2023-03-11T19:08:33;2.10;99.90
42803;DHT22;28447;48.682;9.022;2023-03-11T19:10:58;2.10;99.90
42803;DHT22;28447;48.682;9.022;2023-03-11T19:13:24;2.00;99.90
42803;DHT22;28447;48.682;9.022;2023-03-11T19:15:50;2.00;99.90
42803;DHT22;28447;48.682;9.022;2023-03-11T19:18:16;1.90;99.90
42803;DHT22;28447;48.682;9.022;2023-03-11T19:20:42;1.90;99.90
42803;DHT22;28447;48.682;9.022;2023-03-11T19:23:08;1.80;99.90
42803;DHT22;28447;48.682;9.022;2023-03-11T19:25:34;1.70;99.90
42803;DHT22;28447;48.682;9.022;2023-03-11T19:27:59;1.70;99.90
42803;DHT22;28447;48.682;9.022;2023-03-11T19:30:25;1.60;99.90
42803;DHT22;28447;48.682;9.022;2023-03-11T19:32:51;1.50;99.90
42803;DHT22;28447;48.682;9.022;2023-03-11T19:35:19;1.40;99.90
42803;DHT22;28447;48.682;9.022;2023-03-11T19:37:45;1.40;99.90
42803;DHT22;28447;48.682;9.022;2023-03-11T19:40:11;1.30;99.90
42803;DHT22;28447;48.682;9.022;2023-03-11T19:42:37;1.20;99.90
42803;DHT22;28447;48.682;9.022;2023-03-11T19:45:03;1.20;99.90
42803;DHT22;28447;48.682;9.022;2023-03-11T19:47:29;1.10;99.90
42803;DHT22;28447;48.682;9.022;2023-03-11T19:49:54;1.10;99.90
42803;DHT22;28447;48.682;9.022;2023-03-11T19:52:20;1.10;99.90
42803;DHT22;28447;48.682;9.022;2023-03-11T19:54:48;1.00;99.90
42803;DHT22;28447;48.682;9.022;2023-03-11T19:57:13;1.00;99.90
42803;DHT22;28447;48.682;9.022;2023-03-11T19:59:39;0.90;99.90
42803;DHT22;28447;48.682;9.022;2023-03-11T20:02:05;0.90;99.90
42803;DHT22;28447;48.682;9.022;2023-03-11T20:04:32;0.80;99.90
42803;DHT22;28447;48.682;9.022;2023-03-11T20:06:59;0.80;99.90
42803;DHT22;28447;48.682;9.022;2023-03-11T20:09:25;0.70;99.90
42803;DHT22;28447;48.682;9.022;2023-03-11T20:11:50;0.70;99.90
42803;DHT22;28447;48.682;9.022;2023-03-11T20:14:16;0.60;99.90
42803;DHT22;28447;48.682;9.022;2023-03-11T20:16:42;0.50;99.90
42803;DHT22;28447;48.682;9.022;2023-03-11T20:19:07;0.50;99.90
42803;DHT22;28447;48.682;9.022;2023-03-11T20:21:33;0.40;99.90
42803;DHT22;28447;48.682;9.022;2023-03-11T20:24:03;0.40;99.90
42803;DHT22;28447;48.682;9.022;2023-03-11T20:26:29;0.40;99.90
42803;DHT22;28447;48.682;9.022;2023-03-11T20:28:55;0.40;99.90
42803;DHT22;28447;48.682;9.022;2023-03-11T20:31:23;0.40;99.90
42803;DHT22;28447;48.682;9.022;2023-03-11T20:33:50;0.40;99.90
42803;DHT22;28447;48.682;9.022;2023-03-11T20:36:19;0.40;99.90
42803;DHT22;28447;48.682;9.022;2023-03-11T20:38:47;0.30;99.90
42803;DHT22;28447;48.682;9.022;2023-03-11T20:41:12;0.30;99.90
42803;DHT22;28447;48.682;9.022;2023-03-11T20:43:39;0.40;99.90
42803;DHT22;28447;48.682;9.022;2023-03-11T20:46:06;0.30;99.90
42803;DHT22;28447;48.682;9.022;2023-03-11T20:48:33;0.20;99.90
42803;DHT22;28447;48.682;9.022;2023-03-11T20:51:00;0.20;99.90
42803;DHT22;28447;48.682;9.022;2023-03-11T20:53:26;0.10;99.90
42803;DHT22;28447;48.682;9.022;2023-03-11T20:55:51;0.10;99.90
42803;DHT22;28447;48.682;9.022;2023-03-11T20:58:17;0.00;99.90
42803;DHT22;28447;48.682;9.022;2023-03-11T21:00:43;0.00;99.90
42803;DHT22;28447;48.682;9.022;2023-03-11T21:03:08;0.00;99.90
42803;DHT22;28447;48.682;9.022;2023-03-11T21:05:38;0.00;99.90
42803;DHT22;28447;48.682;9.022;2023-03-11T21:08:03;0.00;99.90
42803;DHT22;28447;48.682;9.022;2023-03-11T21:10:30;0.00;99.90
42803;DHT22;28447;48.682;9.022;2023-03-11T21:12:56;0.00;99.90
42803;DHT22;28447;48.682;9.022;2023-03-11T21:15:21;-0.10;99.90
42803;DHT22;28447;48.682;9.022;2023-03-11T21:17:47;-0.20;99.90
42803;DHT22;28447;48.682;9.022;2023-03-11T21:20:13;-0.30;99.90
42803;DHT22;28447;48.682;9.022;2023-03-11T21:22:38;-0.30;99.90
42803;DHT22;28447;48.682;9.022;2023-03-11T21:25:04;-0.20;99.90
42803;DHT22;28447;48.682;9.022;2023-03-11T21:27:30;-0.20;99.90
42803;DHT22;28447;48.682;9.022;2023-03-11T21:29:57;-0.20;99.90
42803;DHT22;28447;48.682;9.022;2023-03-11T21:32:25;-0.20;99.90
42803;DHT22;28447;48.682;9.022;2023-03-11T21:34:54;-0.30;99.90
42803;DHT22;28447;48.682;9.022;2023-03-11T21:37:21;-0.40;99.90
42803;DHT22;28447;48.682;9.022;2023-03-11T21:39:47;-0.40;99.90
42803;DHT22;28447;48.682;9.022;2023-03-11T21:42:12;-0.40;99.90
42803;DHT22;28447;48.682;9.022;2023-03-11T21:44:39;-0.40;99.90
42803;DHT22;28447;48.682;9.022;2023-03-11T21:47:05;-0.50;99.90
42803;DHT22;28447;48.682;9.022;2023-03-11T21:49:31;-0.50;99.90
42803;DHT22;28447;48.682;9.022;2023-03-11T21:51:56;-0.40;99.90
42803;DHT22;28447;48.682;9.022;2023-03-11T21:54:23;-0.50;99.90
42803;DHT22;28447;48.682;9.022;2023-03-11T21:56:49;-0.60;99.90
42803;DHT22;28447;48.682;9.022;2023-03-11T21:59:15;-0.60;99.90
42803;DHT22;28447;48.682;9.022;2023-03-11T22:01:40;-0.60;99.90
42803;DHT22;28447;48.682;9.022;2023-03-11T22:04:06;-0.60;99.90
42803;DHT22;28447;48.682;9.022;2023-03-11T22:06:32;-0.60;99.90
42803;DHT22;28447;48.682;9.022;2023-03-11T22:08:59;-0.70;99.90
42803;DHT22;28447;48.682;9.022;2023-03-11T22:11:25;-0.70;99.90
42803;DHT22;28447;48.682;9.022;2023-03-11T22:13:52;-0.70;99.90
42803;DHT22;28447;48.682;9.022;2023-03-11T22:16:19;-0.70;99.90
42803;DHT22;28447;48.682;9.022;2023-03-11T22:18:46;-0.70;99.90
42803;DHT22;28447;48.682;9.022;2023-03-11T22:21:12;-0.80;99.90
42803;DHT22;28447;48.682;9.022;2023-03-11T22:23:43;-0.80;99.90
42803;DHT22;28447;48.682;9.022;2023-03-11T22:26:09;-0.80;99.90
42803;DHT22;28447;48.682;9.022;2023-03-11T22:28:35;-0.80;99.90
42803;DHT22;28447;48.682;9.022;2023-03-11T22:31:05;-0.80;99.90
42803;DHT22;28447;48.682;9.022;2023-03-11T22:33:32;-0.80;99.90
42803;DHT22;28447;48.682;9.022;2023-03-11T22:35:59;-0.80;99.90
42803;DHT22;28447;48.682;9.022;2023-03-11T22:38:26;-0.90;99.90
42803;DHT22;28447;48.682;9.022;2023-03-11T22:40:53;-0.90;99.90
42803;DHT22;28447;48.682;9.022;2023-03-11T22:43:19;-0.90;99.90